Time;durP1;ratioP1;P1;durP2;ratioP2;P2;SDS_P1;SDS_P2;PMS_P1;PMS_P2;Temp;Humidity;BMP_temperature;BMP_pressure;BME280_temperature;BME280_humidity;BME280_pressure;Samples;Min_cycle;Max_cycle;Signal;HPM_P1;HPM_P2
2023/08/30 00:01:55;;;;;;;;;;;;;;;;;;5057289;28;1232;-61
2023/08/30 00:04:22;;;;;;;;;;;;;;;;;;5047256;28;5094;-61
2023/08/30 00:06:47;;;;;;;;;;;;;;;;;;5055727;28;4749;-61
2023/08/30 00:09:12;;;;;;;;;;;;;;;;;;5050589;28;5004;-61
2023/08/30 00:11:38;;;;;;;;;;;;;;;;;;5063145;28;5019;-61
2023/08/30 00:14:05;;;;;;;;;;;;;;;;;;5058791;28;1175;-61
2023/08/30 00:16:30;;;;;;;;;;;;;;;;;;5050795;28;4491;-61
2023/08/30 00:18:56;;;;;;;;;;;;;;;;;;5061447;28;4602;-61
2023/08/30 00:21:21;;;;;;;;;;;;;;;;;;5050495;28;4689;-61
2023/08/30 00:23:46;;;;;;;;;;;;;;;;;;5055202;28;4957;-61
2023/08/30 00:26:11;;;;;;;;;;;;;;;;;;5058372;28;4963;-60
2023/08/30 00:28:37;;;;;;;;;;;;;;;;;;5052058;28;1423;-60
2023/08/30 00:31:02;;;;;;;;;;;;;;;;;;5045342;28;5058;-61
2023/08/30 00:33:27;;;;;;;;;;;;;;;;;;5051247;28;5115;-61
2023/08/30 00:35:56;;;;;;;;;;;;;;;;;;5052281;28;4750;-61
2023/08/30 00:38:22;;;;;;;;;;;;;;;;;;5051281;28;5073;-61
2023/08/30 00:40:47;;;;;;;;;;;;;;;;;;5050533;28;1914;-61
2023/08/30 00:43:12;;;;;;;;;;;;;;;;;;5055231;28;5002;-61
2023/08/30 00:45:37;;;;;;;;;;;;;;;;;;5050415;28;5029;-59
2023/08/30 00:48:04;;;;;;;;;;;;;;;;;;5063441;28;4866;-60
2023/08/30 00:50:29;;;;;;;;;;;;;;;;;;5052475;28;5078;-62
2023/08/30 00:52:54;;;;;;;;;;;;;;;;;;5050056;28;1148;-60
2023/08/30 00:55:20;;;;;;;;;;;;;;;;;;5059425;28;5153;-62
2023/08/30 00:57:45;;;;;;;;;;;;;;;;;;5093966;28;4993;-62
2023/08/30 01:00:10;;;;;;;;;;;;;;;;;;5087216;28;5077;-61
2023/08/30 01:02:36;;;;;;;;;;;;;;;;;;5088366;28;5084;-62
2023/08/30 01:05:02;;;;;;;;;;;;;;;;;;5086729;28;1156;-61
2023/08/30 01:07:27;;;;;;;;;;;;;;;;;;5101624;28;4458;-61
2023/08/30 01:09:52;;;;;;;;;;;;;;;;;;5105457;28;4911;-61
2023/08/30 01:12:22;;;;;;;;;;;;;;;;;;5098980;28;5100;-61
2023/08/30 01:15:13;;;;;;;;;;;;;;;;;;5099440;28;4834;-60
2023/08/30 01:17:39;;;;;;;;;;;;;;;;;;5080613;28;4941;-62
2023/08/30 01:20:13;;;;;;;;;;;;;;;;;;5088606;28;1914;-61
2023/08/30 01:22:53;;;;;;;;;;;;;;;;;;5088987;28;5043;-62
2023/08/30 01:25:18;;;;;;;;;;;;;;;;;;5092054;28;5001;-60
2023/08/30 01:27:44;;;;;;;;;;;;;;;;;;5096376;28;4662;-61
2023/08/30 01:30:09;;;;;;;;;;;;;;;;;;5076819;28;5103;-61
2023/08/30 01:32:35;;;;;;;;;;;;;;;;;;5078944;28;5337;-61
2023/08/30 01:35:00;;;;;;;;;;;;;;;;;;5100419;28;1364;-61
2023/08/30 01:37:26;;;;;;;;;;;;;;;;;;5080057;28;5018;-62
2023/08/30 01:39:51;;;;;;;;;;;;;;;;;;5079932;28;5062;-61
2023/08/30 01:42:21;;;;;;;;;;;;;;;;;;5083303;28;5051;-61
2023/08/30 01:44:47;;;;;;;;;;;;;;;;;;5099355;28;5005;-62
2023/08/30 01:47:12;;;;;;;;;;;;;;;;;;5096059;28;4976;-61
2023/08/30 01:49:39;;;;;;;;;;;;;;;;;;5099655;28;1171;-62
2023/08/30 01:52:04;;;;;;;;;;;;;;;;;;5084136;28;4544;-60
2023/08/30 01:54:30;;;;;;;;;;;;;;;;;;5082184;28;5024;-60
2023/08/30 01:56:55;;;;;;;;;;;;;;;;;;5104506;28;4774;-60
2023/08/30 01:59:20;;;;;;;;;;;;;;;;;;5073423;28;5004;-60
2023/08/30 02:01:45;;;;;;;;;;;;;;;;;;5094464;28;1378;-60
2023/08/30 02:04:11;;;;;;;;;;;;;;;;;;5084592;28;5216;-60
2023/08/30 02:06:39;;;;;;;;;;;;;;;;;;5102629;28;5099;-60
2023/08/30 02:09:08;;;;;;;;;;;;;;;;;;5068067;28;5021;-60
2023/08/30 02:11:34;;;;;;;;;;;;;;;;;;5096731;28;4851;-60
2023/08/30 02:13:59;;;;;;;;;;;;;;;;;;5102599;28;1143;-59
2023/08/30 02:16:25;;;;;;;;;;;;;;;;;;5094520;28;4861;-60
2023/08/30 02:18:50;;;;;;;;;;;;;;;;;;5095223;28;4609;-61
2023/08/30 02:21:15;;;;;;;;;;;;;;;;;;5098346;28;5102;-60
2023/08/30 02:23:41;;;;;;;;;;;;;;;;;;5066282;28;5038;-61
2023/08/30 02:26:06;;;;;;;;;;;;;;;;;;5103401;28;1368;-61
2023/08/30 02:28:31;;;;;;;;;;;;;;;;;;5095561;28;4950;-61
2023/08/30 02:30:56;;;;;;;;;;;;;;;;;;5093715;28;5138;-61
2023/08/30 02:33:22;;;;;;;;;;;;;;;;;;5098752;28;5576;-61
2023/08/30 02:35:47;;;;;;;;;;;;;;;;;;5102796;28;4790;-61
2023/08/30 02:38:12;;;;;;;;;;;;;;;;;;5097058;28;4947;-61
2023/08/30 02:40:38;;;;;;;;;;;;;;;;;;5101209;28;1913;-60
2023/08/30 02:43:03;;;;;;;;;;;;;;;;;;5092499;28;4823;-61
2023/08/30 02:45:28;;;;;;;;;;;;;;;;;;5102683;28;4834;-61
2023/08/30 02:47:56;;;;;;;;;;;;;;;;;;5098935;28;4927;-61
2023/08/30 02:50:22;;;;;;;;;;;;;;;;;;5094575;28;5033;-60
2023/08/30 02:52:47;;;;;;;;;;;;;;;;;;5093102;28;3229;-60
2023/08/30 02:55:12;;;;;;;;;;;;;;;;;;5094493;28;5288;-63
2023/08/30 02:57:38;;;;;;;;;;;;;;;;;;5090396;28;5167;-58
2023/08/30 03:00:05;;;;;;;;;;;;;;;;;;5090010;28;4885;-59
2023/08/30 03:02:31;;;;;;;;;;;;;;;;;;5100478;28;5078;-59
2023/08/30 03:04:56;;;;;;;;;;;;;;;;;;5102802;28;3291;-58
2023/08/30 03:07:21;;;;;;;;;;;;;;;;;;5101503;28;4966;-58
2023/08/30 03:09:51;;;;;;;;;;;;;;;;;;5093469;28;5080;-59
2023/08/30 03:12:16;;;;;;;;;;;;;;;;;;5100772;28;4441;-58
2023/08/30 03:14:41;;;;;;;;;;;;;;;;;;5085932;28;4909;-58
2023/08/30 03:17:07;;;;;;;;;;;;;;;;;;5097233;28;3369;-58
2023/08/30 03:19:32;;;;;;;;;;;;;;;;;;5103303;28;4965;-60
2023/08/30 03:21:57;;;;;;;;;;;;;;;;;;5095244;28;5077;-60
2023/08/30 03:24:22;;;;;;;;;;;;;;;;;;5087596;28;5168;-57
2023/08/30 03:26:48;;;;;;;;;;;;;;;;;;5093809;28;4586;-59
2023/08/30 03:29:13;;;;;;;;;;;;;;;;;;5091349;28;4462;-58
2023/08/30 03:31:38;;;;;;;;;;;;;;;;;;5091545;28;5161;-60
2023/08/30 03:34:04;;;;;;;;;;;;;;;;;;5095518;28;4976;-58
2023/08/30 03:36:29;;;;;;;;;;;;;;;;;;5093309;28;4610;-58
2023/08/30 03:38:54;;;;;;;;;;;;;;;;;;5096436;28;5269;-58
2023/08/30 03:41:19;;;;;;;;;;;;;;;;;;5093809;28;4523;-58
2023/08/30 03:43:44;;;;;;;;;;;;;;;;;;5096332;28;1134;-59
2023/08/30 03:46:11;;;;;;;;;;;;;;;;;;5100578;28;5051;-58
2023/08/30 03:48:36;;;;;;;;;;;;;;;;;;5088821;28;4886;-58
2023/08/30 03:51:02;;;;;;;;;;;;;;;;;;5097048;28;4880;-58
2023/08/30 03:53:27;;;;;;;;;;;;;;;;;;5091926;28;5160;-58
2023/08/30 03:55:52;;;;;;;;;;;;;;;;;;5100125;28;1324;-58
2023/08/30 03:58:18;;;;;;;;;;;;;;;;;;5102266;28;4899;-58
2023/08/30 04:00:43;;;;;;;;;;;;;;;;;;5091238;28;5042;-58
2023/08/30 04:03:09;;;;;;;;;;;;;;;;;;5102102;28;5077;-58
2023/08/30 04:05:34;;;;;;;;;;;;;;;;;;5092343;28;5319;-58
2023/08/30 04:08:00;;;;;;;;;;;;;;;;;;5087800;28;3304;-58
2023/08/30 04:10:26;;;;;;;;;;;;;;;;;;5095712;28;4381;-59
2023/08/30 04:12:51;;;;;;;;;;;;;;;;;;5086151;28;5084;-57
2023/08/30 04:15:16;;;;;;;;;;;;;;;;;;5087799;28;5103;-59
2023/08/30 04:17:42;;;;;;;;;;;;;;;;;;5058621;28;5031;-58
2023/08/30 04:20:07;;;;;;;;;;;;;;;;;;5086582;28;3337;-58
2023/08/30 04:22:34;;;;;;;;;;;;;;;;;;5083857;28;5943;-59
2023/08/30 04:24:59;;;;;;;;;;;;;;;;;;5088774;28;5170;-58
2023/08/30 04:27:25;;;;;;;;;;;;;;;;;;5097965;28;5038;-58
2023/08/30 04:29:51;;;;;;;;;;;;;;;;;;5079955;28;5020;-58
2023/08/30 04:32:17;;;;;;;;;;;;;;;;;;5092505;28;5113;-58
2023/08/30 04:34:42;;;;;;;;;;;;;;;;;;5074905;28;1280;-58
2023/08/30 04:37:07;;;;;;;;;;;;;;;;;;5088816;28;4528;-59
2023/08/30 04:39:33;;;;;;;;;;;;;;;;;;5091897;28;5040;-58
2023/08/30 04:41:58;;;;;;;;;;;;;;;;;;5088245;28;5104;-59
2023/08/30 04:44:24;;;;;;;;;;;;;;;;;;5095209;28;5071;-59
2023/08/30 04:46:51;;;;;;;;;;;;;;;;;;5085929;28;3302;-58
2023/08/30 04:49:17;;;;;;;;;;;;;;;;;;5089682;28;4411;-59
2023/08/30 04:51:42;;;;;;;;;;;;;;;;;;5092351;28;4678;-58
2023/08/30 04:54:07;;;;;;;;;;;;;;;;;;5091272;28;5117;-59
2023/08/30 04:56:33;;;;;;;;;;;;;;;;;;5091325;28;4492;-58
2023/08/30 04:58:58;;;;;;;;;;;;;;;;;;5079864;28;3449;-57
2023/08/30 05:01:23;;;;;;;;;;;;;;;;;;5080462;28;4464;-58
2023/08/30 05:03:48;;;;;;;;;;;;;;;;;;5087158;28;4714;-59
2023/08/30 05:06:16;;;;;;;;;;;;;;;;;;5093772;28;5881;-58
2023/08/30 05:08:41;;;;;;;;;;;;;;;;;;5089339;28;4991;-58
2023/08/30 05:11:06;;;;;;;;;;;;;;;;;;5100266;28;1122;-57
2023/08/30 05:13:31;;;;;;;;;;;;;;;;;;5097942;28;4961;-61
2023/08/30 05:15:57;;;;;;;;;;;;;;;;;;5094767;28;4978;-61
2023/08/30 05:18:22;;;;;;;;;;;;;;;;;;5084786;28;4979;-59
2023/08/30 05:20:48;;;;;;;;;;;;;;;;;;5100599;28;5819;-62
2023/08/30 05:23:13;;;;;;;;;;;;;;;;;;5101936;28;4806;-59
2023/08/30 05:25:38;;;;;;;;;;;;;;;;;;5105367;28;1064;-65
2023/08/30 05:28:03;;;;;;;;;;;;;;;;;;5099027;28;4797;-66
2023/08/30 05:30:29;;;;;;;;;;;;;;;;;;5086304;28;5335;-67
2023/08/30 05:32:54;;;;;;;;;;;;;;;;;;5089379;28;5102;-67
2023/08/30 05:35:19;;;;;;;;;;;;;;;;;;5098550;28;4432;-64
2023/08/30 05:37:44;;;;;;;;;;;;;;;;;;5094634;28;1437;-67
2023/08/30 05:40:10;;;;;;;;;;;;;;;;;;5100013;28;4893;-67
2023/08/30 05:42:36;;;;;;;;;;;;;;;;;;5095485;28;4996;-67
2023/08/30 05:45:01;;;;;;;;;;;;;;;;;;5096324;28;5017;-68
2023/08/30 05:47:26;;;;;;;;;;;;;;;;;;5094836;28;5142;-67
2023/08/30 05:49:51;;;;;;;;;;;;;;;;;;5110754;28;1253;-67
2023/08/30 05:52:17;;;;;;;;;;;;;;;;;;5093447;28;5593;-67
2023/08/30 05:54:43;;;;;;;;;;;;;;;;;;5103884;28;4971;-68
2023/08/30 05:57:09;;;;;;;;;;;;;;;;;;5104716;28;5025;-67
2023/08/30 05:59:35;;;;;;;;;;;;;;;;;;5099837;28;4963;-68
2023/08/30 06:02:00;;;;;;;;;;;;;;;;;;5098362;28;1388;-68
2023/08/30 06:04:25;;;;;;;;;;;;;;;;;;5088442;28;4963;-68
2023/08/30 06:06:51;;;;;;;;;;;;;;;;;;5088963;28;4921;-67
2023/08/30 06:09:17;;;;;;;;;;;;;;;;;;5089086;28;5101;-68
2023/08/30 06:11:42;;;;;;;;;;;;;;;;;;5093187;28;5232;-68
2023/08/30 06:14:07;;;;;;;;;;;;;;;;;;5092787;28;5160;-63
2023/08/30 06:16:32;;;;;;;;;;;;;;;;;;5073979;28;3256;-68
2023/08/30 06:18:58;;;;;;;;;;;;;;;;;;5096753;28;5197;-67
2023/08/30 06:21:24;;;;;;;;;;;;;;;;;;5095893;28;4980;-67
2023/08/30 06:23:50;;;;;;;;;;;;;;;;;;5096675;28;4498;-64
2023/08/30 06:26:15;;;;;;;;;;;;;;;;;;5095839;28;4908;-67
2023/08/30 06:28:40;;;;;;;;;;;;;;;;;;5091634;28;1947;-67
2023/08/30 06:31:06;;;;;;;;;;;;;;;;;;5095956;28;5043;-67
2023/08/30 06:33:31;;;;;;;;;;;;;;;;;;5091160;28;5012;-68
2023/08/30 06:35:56;;;;;;;;;;;;;;;;;;5100292;28;4617;-67
2023/08/30 06:38:21;;;;;;;;;;;;;;;;;;5081139;28;5205;-67
2023/08/30 06:40:47;;;;;;;;;;;;;;;;;;5091494;28;3104;-67
2023/08/30 06:43:12;;;;;;;;;;;;;;;;;;5092837;28;4875;-67
2023/08/30 06:45:41;;;;;;;;;;;;;;;;;;5088998;28;5135;-66
2023/08/30 06:48:07;;;;;;;;;;;;;;;;;;5085102;28;4959;-68
2023/08/30 06:50:32;;;;;;;;;;;;;;;;;;5095644;28;5119;-66
2023/08/30 06:52:57;;;;;;;;;;;;;;;;;;5103452;28;1100;-67
2023/08/30 06:55:22;;;;;;;;;;;;;;;;;;5090822;28;4929;-67
2023/08/30 06:57:49;;;;;;;;;;;;;;;;;;5101562;28;4701;-68
2023/08/30 07:00:14;;;;;;;;;;;;;;;;;;5078303;28;5173;-68
2023/08/30 07:02:39;;;;;;;;;;;;;;;;;;5099620;28;5119;-66
2023/08/30 07:05:05;;;;;;;;;;;;;;;;;;5094877;28;1251;-67
2023/08/30 07:07:31;;;;;;;;;;;;;;;;;;5098300;28;4625;-65
2023/08/30 07:09:56;;;;;;;;;;;;;;;;;;5093083;28;4646;-68
2023/08/30 07:12:21;;;;;;;;;;;;;;;;;;5088639;28;5154;-66
2023/08/30 07:14:46;;;;;;;;;;;;;;;;;;5091465;28;5041;-67
2023/08/30 07:17:12;;;;;;;;;;;;;;;;;;5078945;28;4850;-68
2023/08/30 07:19:37;;;;;;;;;;;;;;;;;;5094124;28;2215;-68
2023/08/30 07:22:03;;;;;;;;;;;;;;;;;;5100180;28;5054;-68
2023/08/30 07:24:28;;;;;;;;;;;;;;;;;;5092840;28;5164;-66
2023/08/30 07:26:53;;;;;;;;;;;;;;;;;;5093640;27;5072;-69
2023/08/30 07:29:18;;;;;;;;;;;;;;;;;;5059702;28;4877;-68
2023/08/30 07:31:44;;;;;;;;;;;;;;;;;;5069340;28;5209;-68
2023/08/30 07:34:09;;;;;;;;;;;;;;;;;;5070746;28;5068;-64
2023/08/30 07:36:35;;;;;;;;;;;;;;;;;;5066774;28;5376;-70
2023/08/30 07:39:00;;;;;;;;;;;;;;;;;;5071062;28;5201;-69
2023/08/30 07:41:25;;;;;;;;;;;;;;;;;;5075849;28;5083;-68
2023/08/30 07:43:50;;;;;;;;;;;;;;;;;;5068283;28;1077;-68
2023/08/30 07:46:15;;;;;;;;;;;;;;;;;;5072909;28;5503;-62
2023/08/30 07:48:41;;;;;;;;;;;;;;;;;;5066152;28;5085;-61
2023/08/30 07:51:06;;;;;;;;;;;;;;;;;;5081049;28;5140;-62
2023/08/30 07:53:31;;;;;;;;;;;;;;;;;;5076069;28;4975;-62
2023/08/30 07:55:56;;;;;;;;;;;;;;;;;;5058170;28;3079;-61
2023/08/30 07:58:22;;;;;;;;;;;;;;;;;;5070156;28;5021;-62
2023/08/30 08:00:50;;;;;;;;;;;;;;;;;;5061851;28;4965;-63
2023/08/30 08:03:15;;;;;;;;;;;;;;;;;;5067191;28;4614;-63
2023/08/30 08:05:40;;;;;;;;;;;;;;;;;;5064707;28;5189;-62
2023/08/30 08:08:06;;;;;;;;;;;;;;;;;;5064614;28;3074;-63
2023/08/30 08:10:32;;;;;;;;;;;;;;;;;;5065745;28;5032;-63
2023/08/30 08:12:57;;;;;;;;;;;;;;;;;;5055419;28;4713;-63
2023/08/30 08:15:23;;;;;;;;;;;;;;;;;;5037080;28;5168;-63
2023/08/30 08:17:49;;;;;;;;;;;;;;;;;;5052915;28;4984;-64
2023/08/30 08:20:14;;;;;;;;;;;;;;;;;;5061751;28;5154;-62
2023/08/30 08:22:40;;;;;;;;;;;;;;;;;;5036224;28;1098;-62
2023/08/30 08:25:05;;;;;;;;;;;;;;;;;;5057720;28;4923;-63
2023/08/30 08:27:30;;;;;;;;;;;;;;;;;;5067279;28;4852;-63
2023/08/30 08:29:55;;;;;;;;;;;;;;;;;;5067928;28;5051;-62
2023/08/30 08:32:21;;;;;;;;;;;;;;;;;;5062460;28;5243;-62
2023/08/30 08:34:46;;;;;;;;;;;;;;;;;;5056033;28;1077;-62
2023/08/30 08:37:11;;;;;;;;;;;;;;;;;;5064226;28;5791;-63
2023/08/30 08:39:36;;;;;;;;;;;;;;;;;;5067243;28;5125;-62
2023/08/30 08:42:02;;;;;;;;;;;;;;;;;;5065297;28;4715;-62
2023/08/30 08:44:29;;;;;;;;;;;;;;;;;;5067142;28;5106;-62
2023/08/30 08:46:54;;;;;;;;;;;;;;;;;;5086966;28;1423;-62
2023/08/30 08:49:19;;;;;;;;;;;;;;;;;;5079362;28;5038;-63
2023/08/30 08:51:44;;;;;;;;;;;;;;;;;;5063662;28;5552;-62
2023/08/30 08:54:10;;;;;;;;;;;;;;;;;;5067639;28;5051;-62
2023/08/30 08:56:35;;;;;;;;;;;;;;;;;;5069510;28;4992;-61
2023/08/30 08:59:01;;;;;;;;;;;;;;;;;;5062481;28;3318;-62
2023/08/30 09:01:26;;;;;;;;;;;;;;;;;;5068529;28;4904;-61
2023/08/30 09:03:51;;;;;;;;;;;;;;;;;;5063200;28;5048;-53
2023/08/30 09:06:17;;;;;;;;;;;;;;;;;;5061520;28;6014;-47
2023/08/30 09:08:42;;;;;;;;;;;;;;;;;;5047736;28;5348;-46
2023/08/30 09:11:07;;;;;;;;;;;;;;;;;;5029289;28;5106;-56
2023/08/30 09:13:33;;;;;;;;;;;;;;;;;;5050096;28;3380;-54
2023/08/30 09:15:59;;;;;;;;;;;;;;;;;;5040303;28;5141;-51
2023/08/30 09:18:27;;;;;;;;;;;;;;;;;;5025602;28;5071;-52
2023/08/30 09:20:53;;;;;;;;;;;;;;;;;;5050694;28;4581;-55
2023/08/30 09:23:19;;;;;;;;;;;;;;;;;;5066012;28;5002;-52
2023/08/30 09:25:45;;;;;;;;;;;;;;;;;;5043515;28;1172;-55
2023/08/30 09:28:11;;;;;;;;;;;;;;;;;;5050104;28;4964;-53
2023/08/30 09:30:36;;;;;;;;;;;;;;;;;;5059465;28;5130;-56
2023/08/30 09:33:02;;;;;;;;;;;;;;;;;;5063251;28;5373;-55
2023/08/30 09:35:28;;;;;;;;;;;;;;;;;;5060760;28;5477;-54
2023/08/30 09:37:53;;;;;;;;;;;;;;;;;;5068076;28;1310;-52
2023/08/30 09:40:19;;;;;;;;;;;;;;;;;;5067144;28;5000;-53
2023/08/30 09:42:44;;;;;;;;;;;;;;;;;;5036940;28;4988;-53
2023/08/30 09:45:19;;;;;;;;;;;;;;;;;;5066252;28;5039;-52
2023/08/30 09:47:48;;;;;;;;;;;;;;;;;;5052017;28;4507;-50
2023/08/30 09:50:13;;;;;;;;;;;;;;;;;;5070412;28;5119;-55
2023/08/30 09:52:38;;;;;;;;;;;;;;;;;;5047617;28;1151;-52
2023/08/30 09:55:04;;;;;;;;;;;;;;;;;;5061312;28;4659;-53
2023/08/30 09:57:29;;;;;;;;;;;;;;;;;;5042922;28;5036;-55
2023/08/30 09:59:55;;;;;;;;;;;;;;;;;;5060649;28;5091;-58
2023/08/30 10:02:20;;;;;;;;;;;;;;;;;;5079541;28;4622;-55
2023/08/30 10:04:45;;;;;;;;;;;;;;;;;;5070374;28;1376;-52
2023/08/30 10:07:10;;;;;;;;;;;;;;;;;;5067325;28;5397;-52
2023/08/30 10:09:37;;;;;;;;;;;;;;;;;;5069690;28;5093;-53
2023/08/30 10:12:03;;;;;;;;;;;;;;;;;;5065106;28;4863;-51
2023/08/30 10:14:28;;;;;;;;;;;;;;;;;;5069642;28;5233;-53
2023/08/30 10:16:58;;;;;;;;;;;;;;;;;;5069930;28;1139;-59
2023/08/30 10:19:24;;;;;;;;;;;;;;;;;;5086060;28;4908;-54
2023/08/30 10:21:51;;;;;;;;;;;;;;;;;;5063328;28;5051;-63
2023/08/30 10:24:17;;;;;;;;;;;;;;;;;;5056492;28;5056;-58
2023/08/30 10:26:42;;;;;;;;;;;;;;;;;;5082597;28;5123;-58
2023/08/30 10:29:08;;;;;;;;;;;;;;;;;;5061461;28;5032;-57
2023/08/30 10:31:33;;;;;;;;;;;;;;;;;;5050386;28;5260;-58
2023/08/30 10:33:58;;;;;;;;;;;;;;;;;;5068171;28;4984;-59
2023/08/30 10:36:24;;;;;;;;;;;;;;;;;;5067494;28;5225;-57
2023/08/30 10:38:50;;;;;;;;;;;;;;;;;;5063866;28;4430;-58
2023/08/30 10:41:19;;;;;;;;;;;;;;;;;;5067843;28;4910;-58
2023/08/30 10:43:48;;;;;;;;;;;;;;;;;;5068937;28;1223;-57
2023/08/30 10:46:14;;;;;;;;;;;;;;;;;;5066720;28;5041;-57
2023/08/30 10:48:39;;;;;;;;;;;;;;;;;;5068080;28;5082;-56
2023/08/30 10:51:07;;;;;;;;;;;;;;;;;;5057083;28;5217;-57
2023/08/30 10:53:32;;;;;;;;;;;;;;;;;;5068686;28;4644;-57
2023/08/30 10:56:07;;;;;;;;;;;;;;;;;;5072812;28;1208;-58
2023/08/30 10:58:43;;;;;;;;;;;;;;;;;;5087728;28;4978;-58
2023/08/30 11:01:09;;;;;;;;;;;;;;;;;;5087924;28;4452;-60
2023/08/30 11:03:35;;;;;;;;;;;;;;;;;;5082905;28;5035;-58
2023/08/30 11:06:01;;;;;;;;;;;;;;;;;;5069528;28;5759;-59
2023/08/30 11:08:26;;;;;;;;;;;;;;;;;;5087958;28;5038;-61
2023/08/30 11:11:00;;;;;;;;;;;;;;;;;;5072638;28;1174;-58
2023/08/30 11:13:26;;;;;;;;;;;;;;;;;;5085045;28;4977;-59
2023/08/30 11:15:51;;;;;;;;;;;;;;;;;;5089563;28;5038;-58
2023/08/30 11:18:18;;;;;;;;;;;;;;;;;;5088547;28;4967;-58
2023/08/30 11:20:44;;;;;;;;;;;;;;;;;;5088796;28;5178;-58
2023/08/30 11:23:09;;;;;;;;;;;;;;;;;;5083879;28;4537;-55
2023/08/30 11:25:34;;;;;;;;;;;;;;;;;;5086988;28;1141;-55
2023/08/30 11:28:03;;;;;;;;;;;;;;;;;;5088717;28;4973;-54
2023/08/30 11:30:28;;;;;;;;;;;;;;;;;;5086948;28;5052;-54
2023/08/30 11:32:55;;;;;;;;;;;;;;;;;;5088024;28;5208;-53
2023/08/30 11:35:20;;;;;;;;;;;;;;;;;;5088383;28;5063;-64
2023/08/30 11:37:46;;;;;;;;;;;;;;;;;;5073082;28;1525;-58
2023/08/30 11:40:11;;;;;;;;;;;;;;;;;;5096007;28;4840;-58
2023/08/30 11:42:36;;;;;;;;;;;;;;;;;;5087727;28;5004;-56
2023/08/30 11:45:04;;;;;;;;;;;;;;;;;;5104349;28;5035;-62
2023/08/30 11:47:29;;;;;;;;;;;;;;;;;;5087599;28;4603;-53
2023/08/30 11:49:55;;;;;;;;;;;;;;;;;;5081154;28;1077;-54
2023/08/30 11:52:20;;;;;;;;;;;;;;;;;;5086581;28;4574;-55
2023/08/30 11:54:48;;;;;;;;;;;;;;;;;;5092623;28;4935;-50
2023/08/30 11:57:14;;;;;;;;;;;;;;;;;;5102175;28;4649;-54
2023/08/30 11:59:39;;;;;;;;;;;;;;;;;;5083605;28;4652;-54
2023/08/30 12:02:04;;;;;;;;;;;;;;;;;;5087779;28;1993;-50
2023/08/30 12:04:33;;;;;;;;;;;;;;;;;;5087176;28;4388;-54
2023/08/30 12:06:59;;;;;;;;;;;;;;;;;;5086735;28;4847;-55
2023/08/30 12:09:29;;;;;;;;;;;;;;;;;;5085770;28;5007;-52
2023/08/30 12:11:55;;;;;;;;;;;;;;;;;;5086798;28;5036;-53
2023/08/30 12:14:20;;;;;;;;;;;;;;;;;;5070756;28;4974;-53
2023/08/30 12:16:46;;;;;;;;;;;;;;;;;;5086452;28;2366;-53
2023/08/30 12:19:12;;;;;;;;;;;;;;;;;;5086976;28;4922;-54
2023/08/30 12:21:44;;;;;;;;;;;;;;;;;;5086333;28;4933;-51
2023/08/30 12:24:09;;;;;;;;;;;;;;;;;;5082858;28;5079;-56
2023/08/30 12:26:34;;;;;;;;;;;;;;;;;;5084299;28;5074;-51
2023/08/30 12:29:00;;;;;;;;;;;;;;;;;;5083415;28;1436;-53
2023/08/30 12:31:27;;;;;;;;;;;;;;;;;;5085442;28;5099;-52
2023/08/30 12:33:52;;;;;;;;;;;;;;;;;;5086787;28;4832;-53
2023/08/30 12:36:17;;;;;;;;;;;;;;;;;;5082633;28;5075;-52
2023/08/30 12:38:43;;;;;;;;;;;;;;;;;;5066105;28;5020;-54
2023/08/30 12:41:08;;;;;;;;;;;;;;;;;;5066549;28;4893;-55
2023/08/30 12:43:33;;;;;;;;;;;;;;;;;;5063429;28;1084;-53
2023/08/30 12:45:58;;;;;;;;;;;;;;;;;;5066432;28;5012;-54
2023/08/30 12:48:24;;;;;;;;;;;;;;;;;;5066175;28;5324;-54
2023/08/30 12:50:49;;;;;;;;;;;;;;;;;;5066882;28;4958;-55
2023/08/30 12:53:16;;;;;;;;;;;;;;;;;;5074091;28;4590;-55
2023/08/30 12:55:41;;;;;;;;;;;;;;;;;;5067874;28;1123;-54
2023/08/30 12:58:07;;;;;;;;;;;;;;;;;;5069208;28;5010;-51
2023/08/30 13:00:33;;;;;;;;;;;;;;;;;;5066836;28;5005;-59
2023/08/30 13:02:58;;;;;;;;;;;;;;;;;;5066950;28;5044;-58
2023/08/30 13:05:23;;;;;;;;;;;;;;;;;;5071672;28;5990;-60
2023/08/30 13:07:49;;;;;;;;;;;;;;;;;;5073947;28;1092;-59
2023/08/30 13:10:14;;;;;;;;;;;;;;;;;;5069794;28;5008;-61
2023/08/30 13:12:39;;;;;;;;;;;;;;;;;;5063450;28;5129;-59
2023/08/30 13:15:05;;;;;;;;;;;;;;;;;;5064642;28;4687;-59
2023/08/30 13:17:30;;;;;;;;;;;;;;;;;;5070930;28;4991;-60
2023/08/30 13:19:57;;;;;;;;;;;;;;;;;;5066769;28;1917;-59
2023/08/30 13:22:22;;;;;;;;;;;;;;;;;;5071588;28;5291;-61
2023/08/30 13:24:47;;;;;;;;;;;;;;;;;;5064319;28;5170;-60
2023/08/30 13:27:12;;;;;;;;;;;;;;;;;;5067374;28;5099;-61
2023/08/30 13:29:38;;;;;;;;;;;;;;;;;;5063962;28;4868;-59
2023/08/30 13:32:03;;;;;;;;;;;;;;;;;;5065449;28;5162;-62
2023/08/30 13:34:28;;;;;;;;;;;;;;;;;;5066699;28;4686;-62
2023/08/30 13:36:54;;;;;;;;;;;;;;;;;;5070606;28;4869;-57
2023/08/30 13:39:22;;;;;;;;;;;;;;;;;;5064570;28;5026;-57
2023/08/30 13:41:47;;;;;;;;;;;;;;;;;;5069124;28;4508;-58
2023/08/30 13:44:13;;;;;;;;;;;;;;;;;;5071750;28;5017;-55
2023/08/30 13:46:38;;;;;;;;;;;;;;;;;;5073614;28;1136;-55
2023/08/30 13:49:03;;;;;;;;;;;;;;;;;;5072378;28;4925;-57
2023/08/30 13:51:29;;;;;;;;;;;;;;;;;;5071645;28;4933;-58
2023/08/30 13:53:54;;;;;;;;;;;;;;;;;;5071653;28;5068;-55
2023/08/30 13:56:19;;;;;;;;;;;;;;;;;;5076774;28;5102;-56
2023/08/30 13:58:45;;;;;;;;;;;;;;;;;;5072604;28;1424;-55
2023/08/30 14:01:10;;;;;;;;;;;;;;;;;;5068206;28;5001;-57
2023/08/30 14:03:35;;;;;;;;;;;;;;;;;;5073924;28;4588;-54
2023/08/30 14:06:00;;;;;;;;;;;;;;;;;;5071348;28;5558;-57
2023/08/30 14:08:26;;;;;;;;;;;;;;;;;;5067205;28;4904;-56
2023/08/30 14:10:51;;;;;;;;;;;;;;;;;;5071500;28;2077;-57
2023/08/30 14:13:16;;;;;;;;;;;;;;;;;;5067334;28;4680;-56
2023/08/30 14:15:42;;;;;;;;;;;;;;;;;;5073206;28;5030;-56
2023/08/30 14:18:07;;;;;;;;;;;;;;;;;;5068799;28;5074;-56
2023/08/30 14:20:32;;;;;;;;;;;;;;;;;;5069954;28;4635;-56
2023/08/30 14:22:58;;;;;;;;;;;;;;;;;;5069716;28;1158;-54
2023/08/30 14:25:23;;;;;;;;;;;;;;;;;;5066468;28;5140;-55
2023/08/30 14:27:48;;;;;;;;;;;;;;;;;;5072213;28;5089;-53
2023/08/30 14:30:14;;;;;;;;;;;;;;;;;;5084668;28;4489;-57
2023/08/30 14:32:39;;;;;;;;;;;;;;;;;;5070841;28;5023;-59
2023/08/30 14:35:05;;;;;;;;;;;;;;;;;;5080230;28;1112;-60
2023/08/30 14:37:30;;;;;;;;;;;;;;;;;;5076749;28;4797;-63
2023/08/30 14:39:56;;;;;;;;;;;;;;;;;;5088222;28;4961;-60
2023/08/30 14:42:21;;;;;;;;;;;;;;;;;;5079268;28;4948;-59
2023/08/30 14:44:52;;;;;;;;;;;;;;;;;;5083972;28;4857;-60
2023/08/30 14:47:18;;;;;;;;;;;;;;;;;;5083414;28;5097;-60
2023/08/30 14:49:44;;;;;;;;;;;;;;;;;;5084198;28;1050;-61
2023/08/30 14:52:09;;;;;;;;;;;;;;;;;;5076996;28;5099;-60
2023/08/30 14:54:34;;;;;;;;;;;;;;;;;;5084269;28;4634;-60
2023/08/30 14:57:00;;;;;;;;;;;;;;;;;;5079392;28;4919;-60
2023/08/30 14:59:25;;;;;;;;;;;;;;;;;;5078324;28;5055;-59
2023/08/30 15:01:50;;;;;;;;;;;;;;;;;;5077936;28;1910;-60
2023/08/30 15:04:15;;;;;;;;;;;;;;;;;;5079827;28;5036;-53
2023/08/30 15:06:41;;;;;;;;;;;;;;;;;;5070107;28;4888;-53
2023/08/30 15:09:06;;;;;;;;;;;;;;;;;;5080308;28;5133;-51
2023/08/30 15:11:31;;;;;;;;;;;;;;;;;;5073760;28;4921;-53
2023/08/30 15:13:56;;;;;;;;;;;;;;;;;;5082039;28;1341;-49
2023/08/30 15:16:22;;;;;;;;;;;;;;;;;;5085059;28;5134;-51
2023/08/30 15:18:47;;;;;;;;;;;;;;;;;;5036686;28;4492;-51
2023/08/30 15:21:13;;;;;;;;;;;;;;;;;;5058611;28;4657;-50
2023/08/30 15:23:38;;;;;;;;;;;;;;;;;;5077365;28;5343;-55
2023/08/30 15:26:03;;;;;;;;;;;;;;;;;;5081097;28;1335;-52
2023/08/30 15:28:29;;;;;;;;;;;;;;;;;;5079922;28;4919;-52
2023/08/30 15:30:54;;;;;;;;;;;;;;;;;;5068744;28;4978;-53
2023/08/30 15:33:19;;;;;;;;;;;;;;;;;;5063297;28;5197;-52
2023/08/30 15:35:45;;;;;;;;;;;;;;;;;;5086128;28;4599;-53
2023/08/30 15:38:12;;;;;;;;;;;;;;;;;;5078956;28;4459;-52
2023/08/30 15:40:37;;;;;;;;;;;;;;;;;;5081710;28;1984;-52
2023/08/30 15:43:02;;;;;;;;;;;;;;;;;;5082763;28;4925;-50
2023/08/30 15:45:28;;;;;;;;;;;;;;;;;;5076568;28;4841;-52
2023/08/30 15:47:53;;;;;;;;;;;;;;;;;;5081809;28;5115;-51
2023/08/30 15:50:18;;;;;;;;;;;;;;;;;;5081230;28;4419;-52
2023/08/30 15:52:44;;;;;;;;;;;;;;;;;;5083799;28;1142;-53
2023/08/30 15:55:09;;;;;;;;;;;;;;;;;;5077134;28;4989;-53
2023/08/30 15:57:34;;;;;;;;;;;;;;;;;;5096905;28;4812;-52
2023/08/30 15:59:59;;;;;;;;;;;;;;;;;;5095862;28;5223;-52
2023/08/30 16:02:25;;;;;;;;;;;;;;;;;;5090854;28;5248;-53
2023/08/30 16:04:50;;;;;;;;;;;;;;;;;;5094627;28;1277;-54
2023/08/30 16:07:15;;;;;;;;;;;;;;;;;;5094398;28;5087;-52
2023/08/30 16:09:41;;;;;;;;;;;;;;;;;;5089103;28;4967;-52
2023/08/30 16:12:06;;;;;;;;;;;;;;;;;;5093883;28;5013;-49
2023/08/30 16:14:31;;;;;;;;;;;;;;;;;;5088773;28;5099;-52
2023/08/30 16:16:56;;;;;;;;;;;;;;;;;;5093174;28;1147;-52
2023/08/30 16:19:25;;;;;;;;;;;;;;;;;;5097481;28;5036;-52
2023/08/30 16:21:53;;;;;;;;;;;;;;;;;;5088512;28;5202;-53
2023/08/30 16:24:19;;;;;;;;;;;;;;;;;;5097436;28;4682;-50
2023/08/30 16:26:44;;;;;;;;;;;;;;;;;;5098088;28;4969;-54
2023/08/30 16:29:10;;;;;;;;;;;;;;;;;;5085419;28;4876;-54
2023/08/30 16:31:35;;;;;;;;;;;;;;;;;;5096962;28;5244;-53
2023/08/30 16:34:00;;;;;;;;;;;;;;;;;;5093848;28;4480;-52
2023/08/30 16:36:25;;;;;;;;;;;;;;;;;;5099821;28;5220;-52
2023/08/30 16:38:51;;;;;;;;;;;;;;;;;;5093386;28;4440;-51
2023/08/30 16:41:16;;;;;;;;;;;;;;;;;;5103226;28;4637;-53
2023/08/30 16:43:42;;;;;;;;;;;;;;;;;;5098736;28;1176;-53
2023/08/30 16:46:07;;;;;;;;;;;;;;;;;;5113918;27;5719;-52
2023/08/30 16:48:32;;;;;;;;;;;;;;;;;;5098789;28;4483;-51
2023/08/30 16:50:57;;;;;;;;;;;;;;;;;;5079076;28;5107;-51
2023/08/30 16:53:23;;;;;;;;;;;;;;;;;;5098673;28;4961;-53